Time;durP1;ratioP1;P1;durP2;ratioP2;P2;SDS_P1;SDS_P2;PMS_P1;PMS_P2;Temp;Humidity;BMP_temperature;BMP_pressure;BME280_temperature;BME280_humidity;BME280_pressure;Samples;Min_cycle;Max_cycle;Signal;HPM_P1;HPM_P2
2023/06/12 00:00:54;;;;;;;5.03;4.43;;;24.70;83.60;;;;;;5014565;28;20114;-88
2023/06/12 00:03:23;;;;;;;5.00;4.30;;;24.80;83.70;;;;;;5016892;28;20041;-88
2023/06/12 00:05:49;;;;;;;5.65;4.35;;;24.80;84.30;;;;;;5015783;28;20048;-87
2023/06/12 00:08:17;;;;;;;5.03;4.53;;;24.80;83.70;;;;;;5014532;28;20117;-87
2023/06/12 00:10:47;;;;;;;4.93;4.25;;;24.60;83.70;;;;;;5014773;28;20052;-87
2023/06/12 00:13:13;;;;;;;5.07;4.20;;;24.70;83.70;;;;;;5015973;28;20022;-86
2023/06/12 00:15:38;;;;;;;5.05;4.55;;;24.70;83.90;;;;;;5014620;28;20033;-88
2023/06/12 00:18:05;;;;;;;8.93;4.43;;;24.60;83.90;;;;;;5014637;28;20029;-86
2023/06/12 00:20:31;;;;;;;7.00;3.97;;;24.60;84.00;;;;;;5015307;28;20101;-88
2023/06/12 00:22:58;;;;;;;4.68;4.15;;;24.60;83.90;;;;;;5014374;28;20080;-88
2023/06/12 00:25:24;;;;;;;8.13;4.63;;;24.50;84.00;;;;;;5015283;28;20036;-85
2023/06/12 00:27:50;;;;;;;4.72;4.32;;;24.50;84.00;;;;;;5014815;28;20030;-85
2023/06/12 00:30:16;;;;;;;5.22;4.72;;;24.40;84.00;;;;;;5013951;28;20026;-88
2023/06/12 00:32:41;;;;;;;5.03;4.60;;;24.40;84.20;;;;;;5014876;28;20029;-88
2023/06/12 00:35:07;;;;;;;6.85;4.68;;;24.50;84.20;;;;;;5014961;28;20079;-88
2023/06/12 00:37:33;;;;;;;4.68;4.28;;;24.40;84.30;;;;;;5014294;28;20053;-87
2023/06/12 00:39:59;;;;;;;8.32;4.53;;;24.40;84.40;;;;;;5014333;28;20065;-87
2023/06/12 00:42:33;;;;;;;6.97;4.50;;;24.30;84.40;;;;;;5013943;28;20030;-87
2023/06/12 00:44:58;;;;;;;8.48;4.38;;;24.30;84.40;;;;;;5015299;28;20458;-87
2023/06/12 00:47:24;;;;;;;4.95;4.45;;;24.50;84.70;;;;;;5014956;28;20060;-87
2023/06/12 00:49:50;;;;;;;6.28;4.43;;;24.40;84.60;;;;;;5016128;28;20490;-86
2023/06/12 00:52:18;;;;;;;14.73;6.30;;;24.20;84.60;;;;;;5014296;28;20040;-87
2023/06/12 00:54:46;;;;;;;5.53;4.47;;;24.30;84.70;;;;;;5013962;28;20090;-87
2023/06/12 00:57:13;;;;;;;6.20;4.72;;;24.10;84.70;;;;;;5013711;28;20022;-87
2023/06/12 00:59:38;;;;;;;8.05;4.43;;;24.20;84.70;;;;;;5014370;28;20108;-87
2023/06/12 01:02:06;;;;;;;4.75;4.35;;;24.10;84.70;;;;;;5013277;28;20114;-86
2023/06/12 01:04:33;;;;;;;5.03;4.53;;;24.10;84.90;;;;;;5013457;28;20034;-86
2023/06/12 01:07:20;;;;;;;6.32;4.80;;;24.00;84.90;;;;;;5013866;28;20026;-87
2023/06/12 01:09:58;;;;;;;7.90;4.15;;;24.10;85.20;;;;;;5013900;28;20037;-87
2023/06/12 01:12:24;;;;;;;6.00;4.63;;;24.60;85.70;;;;;;5021553;28;20080;-86
2023/06/12 01:14:50;;;;;;;7.97;4.72;;;23.90;85.50;;;;;;5013747;28;20041;-86
2023/06/12 01:17:17;;;;;;;6.13;4.35;;;23.90;85.50;;;;;;5014126;28;20474;-87
2023/06/12 01:19:42;;;;;;;6.18;4.78;;;24.10;85.80;;;;;;5012872;28;20022;-86
2023/06/12 01:22:12;;;;;;;8.70;5.43;;;23.90;85.70;;;;;;5013947;28;20541;-87
2023/06/12 01:25:10;;;;;;;7.50;4.78;;;24.00;85.80;;;;;;5013442;28;20024;-86
2023/06/12 01:28:17;;;;;;;5.78;5.22;;;23.90;85.80;;;;;;4959876;28;20034;-86
2023/06/12 01:30:54;;;;;;;5.40;4.90;;;23.90;86.00;;;;;;5013658;28;20029;-86
2023/06/12 01:33:30;;;;;;;5.32;4.63;;;23.80;86.20;;;;;;5012724;28;20046;-86
2023/06/12 01:35:58;;;;;;;7.53;4.75;;;23.80;86.30;;;;;;5013384;28;20105;-87
2023/06/12 01:38:26;;;;;;;6.18;4.28;;;23.80;86.40;;;;;;5013276;28;20029;-86
2023/06/12 01:40:53;;;;;;;9.02;4.85;;;23.60;86.30;;;;;;5012839;28;20057;-87
2023/06/12 01:43:22;;;;;;;6.47;4.57;;;23.70;86.50;;;;;;5013570;28;20509;-87
2023/06/12 01:45:48;;;;;;;4.90;4.50;;;23.50;86.60;;;;;;5012503;28;20045;-87
2023/06/12 01:48:14;;;;;;;6.30;4.65;;;23.50;86.70;;;;;;5013160;28;20485;-86
2023/06/12 01:50:40;;;;;;;6.35;4.90;;;23.60;86.90;;;;;;5013376;28;20205;-87
2023/06/12 01:53:07;;;;;;;5.10;4.70;;;23.50;87.00;;;;;;5012747;28;20081;-87
2023/06/12 01:55:33;;;;;;;5.20;4.53;;;23.40;87.00;;;;;;5013498;28;20068;-86
2023/06/12 01:57:59;;;;;;;5.00;4.55;;;23.40;87.00;;;;;;5012906;28;20045;-87
2023/06/12 02:00:24;;;;;;;7.03;4.93;;;23.40;87.00;;;;;;5012562;28;20470;-87
2023/06/12 02:02:55;;;;;;;5.80;4.38;;;23.50;87.10;;;;;;5013193;28;20018;-87
2023/06/12 02:05:21;;;;;;;;;;;23.40;87.10;;;;;;5013463;28;20030;-86
2023/06/12 02:07:46;;;;;;;5.75;4.90;;;23.40;87.30;;;;;;5012112;28;19906;-87
2023/06/12 02:10:12;;;;;;;7.05;5.45;;;23.40;87.50;;;;;;5013072;28;20034;-86
2023/06/12 02:12:37;;;;;;;5.63;4.95;;;23.30;87.50;;;;;;5013066;28;20517;-86
2023/06/12 02:15:04;;;;;;;6.57;5.15;;;23.20;87.80;;;;;;5011958;28;20030;-87
2023/06/12 02:17:31;;;;;;;11.23;5.68;;;23.10;87.80;;;;;;5013033;28;20045;-87
2023/06/12 02:19:57;;;;;;;5.65;5.15;;;23.60;88.70;;;;;;5012478;28;20030;-86
2023/06/12 02:22:22;;;;;;;6.75;4.97;;;23.10;88.00;;;;;;5012399;28;20084;-86
2023/06/12 02:24:48;;;;;;;7.90;4.68;;;23.10;88.10;;;;;;5012735;28;20470;-86
2023/06/12 02:27:14;;;;;;;8.18;5.57;;;23.10;88.20;;;;;;5013014;28;20474;-86
2023/06/12 02:29:39;;;;;;;6.75;4.68;;;23.10;88.20;;;;;;5011897;28;20196;-87
2023/06/12 02:32:05;;;;;;;6.22;4.65;;;23.00;88.30;;;;;;5012771;28;20533;-86
2023/06/12 02:34:31;;;;;;;5.78;5.20;;;23.10;88.30;;;;;;5014015;28;20049;-87
2023/06/12 02:36:58;;;;;;;7.32;5.30;;;23.00;88.30;;;;;;5018396;28;20021;-86
2023/06/12 02:39:23;;;;;;;5.05;4.60;;;22.90;88.30;;;;;;5013062;28;20077;-87
2023/06/12 02:41:49;;;;;;;8.20;5.13;;;23.00;88.40;;;;;;5012323;28;20026;-86
2023/06/12 02:44:15;;;;;;;6.07;5.57;;;23.00;88.30;;;;;;5011960;28;20117;-87
2023/06/12 02:46:55;;;;;;;5.90;5.40;;;23.00;88.20;;;;;;5012178;28;20478;-86
2023/06/12 02:49:22;;;;;;;6.10;5.20;;;23.00;88.40;;;;;;5011944;28;20041;-86
2023/06/12 02:51:48;;;;;;;7.70;5.15;;;23.20;88.60;;;;;;5012675;28;20026;-86
2023/06/12 02:54:15;;;;;;;5.30;4.80;;;22.90;88.40;;;;;;5012519;28;20386;-87
2023/06/12 02:56:41;;;;;;;8.55;5.00;;;23.00;88.40;;;;;;5011750;28;20096;-87
2023/06/12 02:59:08;;;;;;;7.28;5.45;;;23.00;88.40;;;;;;5012314;28;20022;-86
2023/06/12 03:01:35;;;;;;;7.70;5.57;;;22.90;88.30;;;;;;5012636;28;20029;-86
2023/06/12 03:04:01;;;;;;;6.40;5.13;;;22.90;88.50;;;;;;5011878;28;20026;-86
2023/06/12 03:06:28;;;;;;;5.70;5.13;;;22.80;88.70;;;;;;5012666;28;20034;-86
2023/06/12 03:08:54;;;;;;;6.22;5.63;;;22.80;88.90;;;;;;5012239;28;20085;-86
2023/06/12 03:11:20;;;;;;;6.43;5.60;;;23.10;89.40;;;;;;5012023;28;20100;-86
2023/06/12 03:13:46;;;;;;;8.98;5.80;;;22.60;89.60;;;;;;5012155;28;20470;-87
2023/06/12 03:16:12;;;;;;;6.05;5.40;;;22.90;90.00;;;;;;5012329;28;20030;-86
2023/06/12 03:18:37;;;;;;;6.35;5.75;;;22.60;90.00;;;;;;5012010;28;20018;-86
2023/06/12 03:21:03;;;;;;;6.50;5.93;;;22.50;90.10;;;;;;5012167;28;20493;-86
2023/06/12 03:23:28;;;;;;;6.32;5.60;;;22.50;90.30;;;;;;5012452;28;20099;-86
2023/06/12 03:25:54;;;;;;;6.20;5.70;;;22.70;90.50;;;;;;5012822;28;20018;-86
2023/06/12 03:28:20;;;;;;;8.13;5.40;;;22.30;90.60;;;;;;5016081;28;20026;-86
2023/06/12 03:30:45;;;;;;;11.85;6.05;;;22.20;90.70;;;;;;5016501;28;20441;-86
2023/06/12 03:33:12;;;;;;;9.48;5.97;;;22.20;90.80;;;;;;5018870;28;20056;-86
2023/06/12 03:35:37;;;;;;;9.27;6.22;;;22.30;90.90;;;;;;5015943;28;20511;-85
2023/06/12 03:38:03;;;;;;;14.48;6.22;;;21.90;90.90;;;;;;5015458;28;20022;-86
2023/06/12 03:40:28;;;;;;;6.55;6.00;;;21.90;91.10;;;;;;5015230;28;20109;-87
2023/06/12 03:42:54;;;;;;;5.90;5.20;;;21.90;91.10;;;;;;5015434;28;20556;-87
2023/06/12 03:45:20;;;;;;;15.00;5.60;;;22.30;91.10;;;;;;5014868;28;20544;-87
2023/06/12 03:47:45;;;;;;;8.05;6.43;;;22.10;90.90;;;;;;5015508;28;20029;-87
2023/06/12 03:50:11;;;;;;;7.50;5.20;;;22.10;90.80;;;;;;5015611;28;20038;-87
2023/06/12 03:52:37;;;;;;;7.75;6.05;;;22.20;90.80;;;;;;5014866;28;20022;-86
2023/06/12 03:55:03;;;;;;;5.78;5.28;;;22.30;90.60;;;;;;5015410;28;20045;-86
2023/06/12 03:57:28;;;;;;;8.57;6.05;;;22.30;90.50;;;;;;5015549;28;20049;-86
2023/06/12 03:59:54;;;;;;;6.05;5.50;;;22.40;90.40;;;;;;5023148;28;20458;-87
2023/06/12 04:02:20;;;;;;;5.68;4.82;;;22.40;90.30;;;;;;5015258;28;20033;-86
2023/06/12 04:04:45;;;;;;;6.18;5.68;;;22.40;90.30;;;;;;5015340;28;20033;-86
2023/06/12 04:07:13;;;;;;;8.18;5.13;;;22.60;90.20;;;;;;5014844;28;20026;-86
2023/06/12 04:09:38;;;;;;;5.63;5.20;;;22.50;90.10;;;;;;5015253;28;20115;-86
2023/06/12 04:12:06;;;;;;;14.63;5.30;;;23.10;90.20;;;;;;5015135;28;20486;-88
2023/06/12 04:14:31;;;;;;;6.97;5.30;;;22.40;90.10;;;;;;5014440;28;20087;-88
2023/06/12 04:16:57;;;;;;;8.40;5.88;;;22.40;90.20;;;;;;5014640;28;20101;-88
2023/06/12 04:19:22;;;;;;;17.48;5.57;;;22.20;90.40;;;;;;5015232;28;20029;-89
2023/06/12 04:21:49;;;;;;;9.23;5.28;;;22.20;90.60;;;;;;5014635;28;20022;-88
2023/06/12 04:24:19;;;;;;;8.15;5.57;;;22.20;90.70;;;;;;5014893;28;20026;-88
2023/06/12 04:26:46;;;;;;;11.60;5.88;;;22.10;90.70;;;;;;5016844;28;20474;-88
2023/06/12 04:29:12;;;;;;;7.00;5.20;;;22.00;90.90;;;;;;5014474;28;20046;-87
2023/06/12 04:31:39;;;;;;;8.40;5.50;;;22.00;91.00;;;;;;5014827;28;20022;-88
2023/06/12 04:34:06;;;;;;;11.82;5.65;;;22.00;91.00;;;;;;5014584;28;20057;-87
2023/06/12 04:36:33;;;;;;;5.70;5.20;;;22.60;91.10;;;;;;5013512;28;20096;-87
2023/06/12 04:39:01;;;;;;;8.07;5.80;;;22.00;91.00;;;;;;5013916;28;20037;-88
2023/06/12 04:41:27;;;;;;;8.00;5.40;;;22.00;91.10;;;;;;5014290;28;20022;-87
2023/06/12 04:43:58;;;;;;;8.50;4.95;;;22.00;91.00;;;;;;5014088;28;20087;-88
2023/06/12 04:46:25;;;;;;;10.40;5.68;;;22.00;90.90;;;;;;5014772;28;20037;-89
2023/06/12 04:48:51;;;;;;;7.20;5.18;;;22.00;91.00;;;;;;5013592;28;20064;-89
2023/06/12 04:51:16;;;;;;;8.38;6.38;;;22.20;91.10;;;;;;5014475;28;20466;-88
2023/06/12 04:53:43;;;;;;;9.98;6.00;;;22.20;91.20;;;;;;5014087;28;20021;-86
2023/06/12 04:56:09;;;;;;;10.10;5.70;;;22.00;91.20;;;;;;5013556;28;20535;-88
2023/06/12 04:58:40;;;;;;;6.82;5.65;;;22.40;91.40;;;;;;5014368;28;20022;-88
2023/06/12 05:01:06;;;;;;;8.23;5.85;;;21.90;91.40;;;;;;5013918;28;20504;-88
2023/06/12 05:03:33;;;;;;;6.00;5.50;;;21.90;91.80;;;;;;5013849;28;20531;-87
2023/06/12 05:05:59;;;;;;;12.73;6.10;;;22.10;91.50;;;;;;5014002;28;20030;-87
2023/06/12 05:08:25;;;;;;;6.07;5.30;;;22.10;91.40;;;;;;5014166;28;20029;-88
2023/06/12 05:10:52;;;;;;;5.38;4.88;;;22.10;91.30;;;;;;5013042;28;20030;-88
2023/06/12 05:13:17;;;;;;;6.97;5.55;;;22.50;91.20;;;;;;5014196;28;20060;-88
2023/06/12 05:15:43;;;;;;;7.45;5.88;;;22.10;91.00;;;;;;5013867;28;20058;-88
2023/06/12 05:18:09;;;;;;;10.68;5.93;;;22.20;91.00;;;;;;5013726;28;20072;-88
2023/06/12 05:20:35;;;;;;;7.72;5.40;;;22.20;90.90;;;;;;5019384;28;20053;-88
2023/06/12 05:23:00;;;;;;;11.98;5.22;;;22.20;90.90;;;;;;5027731;28;20036;-87
2023/06/12 05:25:26;;;;;;;9.10;5.22;;;22.30;90.90;;;;;;5015561;28;20053;-88
2023/06/12 05:27:51;;;;;;;5.78;5.10;;;22.30;91.00;;;;;;5013773;28;20496;-89
2023/06/12 05:30:17;;;;;;;18.30;5.90;;;22.30;91.00;;;;;;5013951;28;20037;-88
2023/06/12 05:32:43;;;;;;;12.55;5.03;;;22.30;91.00;;;;;;5012949;28;20112;-87
2023/06/12 05:35:09;;;;;;;6.05;4.93;;;22.30;91.00;;;;;;5013736;28;20060;-87
2023/06/12 05:37:34;;;;;;;7.05;5.30;;;22.80;91.00;;;;;;5013744;28;20026;-88
2023/06/12 05:40:00;;;;;;;9.32;5.03;;;22.40;90.90;;;;;;5013199;28;20087;-87
2023/06/12 05:42:25;;;;;;;11.63;5.00;;;22.20;90.70;;;;;;5013690;28;20029;-87
2023/06/12 05:44:51;;;;;;;5.85;5.35;;;22.80;90.80;;;;;;5012956;28;20022;-90
2023/06/12 05:47:17;;;;;;;11.52;5.22;;;22.40;90.70;;;;;;5013553;28;20025;-88
2023/06/12 05:49:42;;;;;;;4.85;4.50;;;22.40;90.60;;;;;;5012851;28;20478;-90
2023/06/12 05:52:08;;;;;;;7.22;5.25;;;22.50;90.70;;;;;;5012794;28;20140;-88
2023/06/12 05:54:35;;;;;;;6.50;4.97;;;22.50;90.60;;;;;;5013513;28;20072;-89
2023/06/12 05:57:00;;;;;;;13.48;5.38;;;22.60;90.50;;;;;;5013431;28;20089;-87
2023/06/12 05:59:26;;;;;;;8.45;5.13;;;22.70;90.70;;;;;;5012931;28;20453;-87
2023/06/12 06:01:52;;;;;;;7.25;5.28;;;22.50;90.70;;;;;;5013229;28;20110;-89
2023/06/12 06:04:18;;;;;;;7.47;4.88;;;22.90;90.80;;;;;;5013259;28;20367;-87
2023/06/12 06:06:44;;;;;;;7.88;4.82;;;22.70;90.90;;;;;;5012245;28;20045;-86
2023/06/12 06:09:10;;;;;;;5.55;5.05;;;22.60;91.00;;;;;;5012874;28;20062;-87
2023/06/12 06:11:36;;;;;;;13.27;5.47;;;22.70;90.90;;;;;;5013047;28;20037;-87
2023/06/12 06:14:01;;;;;;;10.30;5.15;;;22.70;90.80;;;;;;5012610;28;20034;-89
2023/06/12 06:16:27;;;;;;;8.18;5.25;;;23.10;90.90;;;;;;5043538;23;20579;-88
2023/06/12 06:18:52;;;;;;;16.13;5.75;;;22.80;90.80;;;;;;5032646;28;20477;-89
2023/06/12 06:21:18;;;;;;;10.15;5.85;;;23.10;90.80;;;;;;5032029;28;20029;-89
2023/06/12 06:23:44;;;;;;;9.38;5.28;;;22.90;90.50;;;;;;5032039;28;20025;-89
2023/06/12 06:26:10;;;;;;;14.02;5.97;;;22.80;90.60;;;;;;5032826;28;20028;-89
2023/06/12 06:28:36;;;;;;;6.30;5.63;;;22.90;90.40;;;;;;5032341;28;20436;-89
2023/06/12 06:31:06;;;;;;;10.27;5.85;;;22.90;90.50;;;;;;5032446;28;20025;-88
2023/06/12 06:33:32;;;;;;;9.77;5.25;;;23.00;90.60;;;;;;5032597;28;20389;-88
2023/06/12 06:35:58;;;;;;;9.18;4.90;;;23.00;90.70;;;;;;5032004;28;20030;-88
2023/06/12 06:38:24;;;;;;;8.98;5.63;;;22.90;90.90;;;;;;5032667;28;20022;-88
2023/06/12 06:40:51;;;;;;;6.35;5.55;;;22.90;90.90;;;;;;5032186;28;20026;-88
2023/06/12 06:43:16;;;;;;;7.63;5.65;;;22.90;90.90;;;;;;5032123;28;20079;-88
2023/06/12 06:45:42;;;;;;;6.65;5.93;;;22.90;91.00;;;;;;5034651;28;20034;-87
2023/06/12 06:48:08;;;;;;;9.02;6.15;;;22.80;91.10;;;;;;5039184;28;20382;-88
2023/06/12 06:50:35;;;;;;;12.57;6.00;;;22.80;91.10;;;;;;5032484;28;20029;-88
2023/06/12 06:53:02;;;;;;;5.88;5.38;;;23.00;91.20;;;;;;5032443;28;20021;-88
2023/06/12 06:55:28;;;;;;;5.80;5.20;;;22.90;91.20;;;;;;5031880;28;20034;-88
2023/06/12 06:57:54;;;;;;;6.07;5.28;;;23.00;91.10;;;;;;5032113;28;20032;-87
2023/06/12 07:00:21;;;;;;;9.75;6.38;;;23.60;91.20;;;;;;5032926;28;20500;-88
2023/06/12 07:02:50;;;;;;;9.55;6.30;;;23.00;90.80;;;;;;5035593;28;20069;-89
2023/06/12 07:05:16;;;;;;;15.50;5.95;;;23.10;90.70;;;;;;5036361;28;20060;-89
2023/06/12 07:07:46;;;;;;;11.63;5.22;;;23.10;90.40;;;;;;5035966;28;20021;-88
2023/06/12 07:10:12;;;;;;;11.85;5.70;;;23.20;90.30;;;;;;5036292;28;20045;-88
2023/06/12 07:12:41;;;;;;;13.68;5.75;;;23.20;90.30;;;;;;5035860;28;20385;-87
2023/06/12 07:15:08;;;;;;;8.35;5.63;;;23.30;90.60;;;;;;5036024;28;20073;-87
2023/06/12 07:17:34;;;;;;;5.88;5.13;;;23.40;90.50;;;;;;5035565;28;20380;-88
2023/06/12 07:19:59;;;;;;;14.07;6.20;;;23.50;90.70;;;;;;5035970;28;20128;-89
2023/06/12 07:22:27;;;;;;;6.63;5.45;;;23.40;90.50;;;;;;5036087;28;20045;-88
2023/06/12 07:24:52;;;;;;;5.70;4.97;;;23.50;90.10;;;;;;5035208;28;20071;-89
2023/06/12 07:27:18;;;;;;;5.97;5.28;;;23.50;90.00;;;;;;5036012;28;20026;-88
2023/06/12 07:29:43;;;;;;;5.95;4.97;;;23.50;89.90;;;;;;5035603;28;20111;-89
2023/06/12 07:32:10;;;;;;;8.05;5.72;;;23.70;90.00;;;;;;5035403;28;20091;-89
2023/06/12 07:34:36;;;;;;;6.78;5.45;;;23.60;90.10;;;;;;5035631;28;20049;-88
2023/06/12 07:37:02;;;;;;;7.78;5.35;;;24.00;90.30;;;;;;5035696;28;20060;-88
2023/06/12 07:39:28;;;;;;;11.25;5.43;;;23.70;90.00;;;;;;5035013;28;20029;-88
2023/06/12 07:41:54;;;;;;;8.35;5.40;;;24.20;90.10;;;;;;5035651;28;20099;-88
2023/06/12 07:44:30;;;;;;;7.90;4.78;;;24.20;89.40;;;;;;5035308;28;20426;-87
2023/06/12 07:46:56;;;;;;;7.82;5.45;;;23.90;86.20;;;;;;5035301;28;20022;-88
2023/06/12 07:49:22;;;;;;;5.85;5.28;;;24.20;86.40;;;;;;5035412;28;20116;-88
2023/06/12 07:52:03;;;;;;;9.52;5.85;;;24.10;86.80;;;;;;5034096;28;20459;-87
2023/06/12 07:54:28;;;;;;;9.30;5.45;;;24.20;87.00;;;;;;5035277;28;20029;-88
2023/06/12 07:56:54;;;;;;;7.68;5.00;;;24.20;87.60;;;;;;5034882;28;20104;-88
2023/06/12 07:59:20;;;;;;;6.20;5.70;;;25.00;88.70;;;;;;5034231;28;20026;-88
2023/06/12 08:01:46;;;;;;;7.10;5.25;;;24.50;89.50;;;;;;5034911;28;20022;-87
2023/06/12 08:04:12;;;;;;;16.95;5.68;;;24.20;89.50;;;;;;5035418;28;20075;-87
2023/06/12 08:06:42;;;;;;;10.52;5.50;;;24.70;89.10;;;;;;5034602;28;20025;-88
2023/06/12 08:09:11;;;;;;;10.55;4.90;;;24.30;88.10;;;;;;5035601;28;20110;-87
2023/06/12 08:11:39;;;;;;;8.02;5.18;;;24.40;88.10;;;;;;5042262;28;20095;-87
2023/06/12 08:14:04;;;;;;;9.65;5.20;;;24.40;89.00;;;;;;5035332;28;20474;-88
2023/06/12 08:16:31;;;;;;;5.38;4.65;;;24.20;89.30;;;;;;5034667;28;20058;-87
2023/06/12 08:18:57;;;;;;;10.80;5.30;;;24.40;88.40;;;;;;5034851;28;20033;-88
2023/06/12 08:21:24;;;;;;;8.13;5.05;;;24.40;89.00;;;;;;5034197;28;20401;-88
2023/06/12 08:23:51;;;;;;;7.10;4.72;;;24.40;88.40;;;;;;5034775;28;20449;-87
2023/06/12 08:26:17;;;;;;;8.40;5.13;;;24.40;87.20;;;;;;5034603;28;20025;-87
2023/06/12 08:28:43;;;;;;;5.25;4.45;;;25.00;87.30;;;;;;5033358;28;20496;-87
2023/06/12 08:31:09;;;;;;;11.10;5.63;;;24.60;86.90;;;;;;5034693;28;20068;-87
2023/06/12 08:33:34;;;;;;;5.93;5.35;;;24.60;87.30;;;;;;5034159;28;20497;-87
2023/06/12 08:36:00;;;;;;;7.97;5.20;;;25.50;88.00;;;;;;5034357;28;20041;-88
2023/06/12 08:38:26;;;;;;;5.82;4.80;;;24.60;87.50;;;;;;5034768;28;20030;-88
2023/06/12 08:40:54;;;;;;;8.20;5.22;;;24.70;88.30;;;;;;5034016;28;20076;-87
2023/06/12 08:43:20;;;;;;;6.13;5.53;;;24.80;86.80;;;;;;5034733;28;20026;-89
2023/06/12 08:45:49;;;;;;;8.52;5.30;;;24.90;87.30;;;;;;5034016;28;20034;-86
2023/06/12 08:48:17;;;;;;;10.85;4.70;;;25.00;87.20;;;;;;5033822;28;20029;-87
2023/06/12 08:50:44;;;;;;;8.85;4.88;;;25.10;85.60;;;;;;5034374;28;20030;-86
2023/06/12 08:53:10;;;;;;;7.10;5.03;;;25.00;85.60;;;;;;5034225;28;20489;-87
2023/06/12 08:55:40;;;;;;;11.95;5.88;;;25.10;84.50;;;;;;5033829;28;20029;-87
2023/06/12 08:58:07;;;;;;;11.07;4.57;;;25.20;84.90;;;;;;5037355;28;20073;-87
2023/06/12 09:00:33;;;;;;;7.18;4.30;;;25.20;84.40;;;;;;5040188;28;20354;-87
2023/06/12 09:03:00;;;;;;;10.77;5.03;;;25.40;85.80;;;;;;5033384;28;20434;-87
2023/06/12 09:05:33;;;;;;;5.18;4.70;;;25.30;84.80;;;;;;5034165;28;20025;-87
2023/06/12 09:08:00;;;;;;;8.57;5.38;;;25.40;84.70;;;;;;5033535;28;20033;-86
2023/06/12 09:10:26;;;;;;;8.27;5.07;;;25.20;81.30;;;;;;5033241;28;20536;-87
2023/06/12 09:12:55;;;;;;;6.40;4.32;;;25.40;82.70;;;;;;5033736;28;20117;-86
2023/06/12 09:15:22;;;;;;;6.88;4.75;;;25.50;79.90;;;;;;5033877;28;20516;-89
2023/06/12 09:17:52;;;;;;;5.55;4.22;;;25.70;80.20;;;;;;5032979;28;20034;-87
2023/06/12 09:20:28;;;;;;;9.35;5.55;;;25.70;80.80;;;;;;5033604;28;20025;-86
2023/06/12 09:22:58;;;;;;;4.43;4.13;;;25.90;79.40;;;;;;5032182;28;20412;-86
2023/06/12 09:25:33;;;;;;;4.55;4.15;;;25.90;79.70;;;;;;5033644;28;20033;-87
2023/06/12 09:27:58;;;;;;;5.20;4.70;;;25.90;79.30;;;;;;5033775;28;20083;-87
2023/06/12 09:30:24;;;;;;;4.25;3.75;;;26.00;78.50;;;;;;5033014;28;20065;-89
2023/06/12 09:32:51;;;;;;;4.70;4.30;;;26.00;77.30;;;;;;5033615;28;20026;-87
2023/06/12 09:35:17;;;;;;;11.98;5.32;;;26.20;79.00;;;;;;5037849;28;20033;-88
2023/06/12 09:37:43;;;;;;;8.23;4.38;;;26.20;78.60;;;;;;5032274;28;20045;-86
2023/06/12 09:40:10;;;;;;;4.85;4.40;;;26.10;77.50;;;;;;5033412;28;20053;-86
2023/06/12 09:42:36;;;;;;;6.32;4.60;;;26.20;78.40;;;;;;5033240;28;20055;-86
2023/06/12 09:45:11;;;;;;;9.30;4.35;;;26.20;77.90;;;;;;5032338;28;20026;-87
2023/06/12 09:47:51;;;;;;;9.02;4.53;;;26.30;77.40;;;;;;5032917;28;20036;-87
2023/06/12 09:50:18;;;;;;;6.40;4.28;;;26.40;76.80;;;;;;5033433;28;20037;-87
2023/06/12 09:52:46;;;;;;;8.20;5.13;;;26.50;75.40;;;;;;5035748;28;20026;-87
2023/06/12 09:55:13;;;;;;;7.68;4.10;;;26.70;75.30;;;;;;5035983;28;20025;-86
2023/06/12 09:57:48;;;;;;;6.03;4.38;;;26.80;74.40;;;;;;5032762;28;20047;-86
2023/06/12 10:00:16;;;;;;;6.60;4.25;;;26.80;74.20;;;;;;5032189;28;20029;-86
2023/06/12 10:02:48;;;;;;;5.63;3.92;;;26.90;72.60;;;;;;5032816;28;20017;-87
2023/06/12 10:05:22;;;;;;;4.60;4.03;;;26.90;72.50;;;;;;5032171;28;20045;-86
2023/06/12 10:07:54;;;;;;;5.32;4.20;;;27.00;72.60;;;;;;5032693;28;20141;-86
2023/06/12 10:10:22;;;;;;;5.95;3.80;;;27.00;72.50;;;;;;5032784;28;20038;-87
2023/06/12 10:12:50;;;;;;;7.93;4.55;;;27.00;73.70;;;;;;5032271;28;20053;-87
2023/06/12 10:15:16;;;;;;;3.92;3.60;;;26.90;72.60;;;;;;5033014;28;20085;-88
2023/06/12 10:17:43;;;;;;;6.10;4.13;;;26.80;73.90;;;;;;5032839;28;20026;-88
2023/06/12 10:20:10;;;;;;;5.00;4.07;;;26.90;73.10;;;;;;5032282;28;20033;-88
2023/06/12 10:22:39;;;;;;;5.50;5.10;;;26.80;74.80;;;;;;5032724;28;20045;-87
2023/06/12 10:25:10;;;;;;;4.87;4.47;;;26.80;73.70;;;;;;5032624;28;20426;-87
2023/06/12 10:27:39;;;;;;;6.10;4.38;;;26.90;73.60;;;;;;5032017;28;20497;-87
2023/06/12 10:30:10;;;;;;;6.97;4.50;;;27.00;74.20;;;;;;5032427;28;20120;-87
2023/06/12 10:32:37;;;;;;;6.10;4.47;;;27.00;73.90;;;;;;5032876;28;20029;-88
2023/06/12 10:35:02;;;;;;;5.70;3.80;;;27.10;73.70;;;;;;5031722;28;20466;-87
2023/06/12 10:37:32;;;;;;;8.48;4.95;;;27.10;73.10;;;;;;5051972;23;20132;-87
2023/06/12 10:40:20;;;;;;;5.63;4.40;;;27.00;74.60;;;;;;5052252;28;20535;-87
2023/06/12 10:42:52;;;;;;;7.78;4.68;;;27.20;74.00;;;;;;5052409;28;20028;-87
2023/06/12 10:45:38;;;;;;;4.55;4.13;;;27.20;73.20;;;;;;5052685;28;20021;-87
2023/06/12 10:48:06;;;;;;;6.15;4.75;;;27.30;74.30;;;;;;5057947;28;20623;-87
2023/06/12 10:50:34;;;;;;;6.18;4.05;;;27.20;74.80;;;;;;5057055;28;20453;-87
2023/06/12 10:53:02;;;;;;;4.85;4.45;;;27.30;73.60;;;;;;5052166;28;20025;-87
2023/06/12 10:55:28;;;;;;;7.70;4.50;;;27.30;73.20;;;;;;5052179;28;20116;-88
2023/06/12 10:57:55;;;;;;;4.80;4.22;;;27.20;72.70;;;;;;5058319;28;20056;-87
2023/06/12 11:00:32;;;;;;;7.00;4.47;;;27.20;73.00;;;;;;5059932;28;20057;-88
2023/06/12 11:02:59;;;;;;;4.68;4.25;;;27.20;72.40;;;;;;5046977;28;20029;-87
2023/06/12 11:05:26;;;;;;;10.10;4.10;;;27.70;72.00;;;;;;5052440;28;20032;-87
2023/06/12 11:08:00;;;;;;;17.65;5.40;;;27.40;72.40;;;;;;5052150;28;20075;-87
2023/06/12 11:10:27;;;;;;;4.78;4.32;;;27.10;72.10;;;;;;5051387;28;20087;-87
2023/06/12 11:12:53;;;;;;;5.43;4.60;;;27.10;71.50;;;;;;5053803;28;20032;-88
2023/06/12 11:15:20;;;;;;;4.55;4.15;;;27.40;70.90;;;;;;5052971;28;20029;-87
2023/06/12 11:17:46;;;;;;;8.02;4.28;;;27.20;71.00;;;;;;5053922;28;20025;-88
2023/06/12 11:20:14;;;;;;;4.07;3.78;;;27.20;71.60;;;;;;5054509;28;20017;-88
2023/06/12 11:22:40;;;;;;;5.95;4.53;;;27.10;71.20;;;;;;5054070;28;20037;-88
2023/06/12 11:25:06;;;;;;;6.40;4.30;;;27.20;71.60;;;;;;5053626;28;20021;-87
2023/06/12 11:27:35;;;;;;;4.50;4.05;;;27.30;70.70;;;;;;5052059;28;20431;-87
2023/06/12 11:30:16;;;;;;;7.65;4.45;;;27.40;71.70;;;;;;5050741;28;20115;-87
2023/06/12 11:32:42;;;;;;;6.57;4.40;;;27.30;71.50;;;;;;5051910;28;20033;-88
2023/06/12 11:35:09;;;;;;;4.53;4.13;;;27.50;70.50;;;;;;5052347;28;20032;-88
2023/06/12 11:37:39;;;;;;;4.70;4.13;;;27.90;70.40;;;;;;5051402;28;20148;-88
2023/06/12 11:40:11;;;;;;;5.28;4.30;;;27.60;68.70;;;;;;5051728;28;20048;-87
2023/06/12 11:42:44;;;;;;;4.75;4.38;;;27.90;68.60;;;;;;5051772;28;20029;-87
2023/06/12 11:45:14;;;;;;;6.07;4.35;;;27.90;69.20;;;;;;5051276;28;20060;-87
2023/06/12 11:47:45;;;;;;;10.93;4.80;;;27.90;70.20;;;;;;5054171;28;20420;-87
2023/06/12 11:50:15;;;;;;;7.03;4.00;;;27.90;71.20;;;;;;5055200;28;20044;-87
2023/06/12 11:52:42;;;;;;;8.25;4.50;;;28.00;70.50;;;;;;5054364;28;20021;-87
2023/06/12 11:55:10;;;;;;;4.43;4.03;;;27.90;68.50;;;;;;5055088;28;20025;-87
2023/06/12 11:57:36;;;;;;;5.70;4.05;;;27.80;69.40;;;;;;5054777;28;20496;-87
2023/06/12 12:00:16;;;;;;;9.57;4.35;;;27.80;70.40;;;;;;5054811;28;20028;-87
2023/06/12 12:02:43;;;;;;;;;;;27.80;68.80;;;;;;5055329;28;20451;-87
2023/06/12 12:05:11;;;;;;;6.68;4.45;;;28.00;67.90;;;;;;5054184;28;20360;-87
2023/06/12 12:07:38;;;;;;;3.95;3.70;;;28.10;67.40;;;;;;5054999;28;20047;-87
2023/06/12 12:10:12;;;;;;;3.90;3.60;;;28.10;68.60;;;;;;5055777;28;20039;-87
2023/06/12 12:12:59;;;;;;;7.97;3.70;;;28.10;67.40;;;;;;5054417;28;20017;-87
2023/06/12 12:15:40;;;;;;;4.60;3.70;;;28.10;67.30;;;;;;5038899;28;20029;-87
2023/06/12 12:18:10;;;;;;;;;;;28.10;68.00;;;;;;5055195;28;20024;-85
2023/06/12 12:20:35;;;;;;;6.00;4.10;;;28.30;67.00;;;;;;5054102;28;19966;-87
2023/06/12 12:23:03;;;;;;;6.30;4.30;;;28.20;66.00;;;;;;5061780;28;20025;-87
2023/06/12 12:25:32;;;;;;;4.28;3.88;;;28.30;66.90;;;;;;5055037;28;20484;-87
2023/06/12 12:28:04;;;;;;;5.95;3.90;;;28.30;65.60;;;;;;5053765;28;20393;-87
2023/06/12 12:30:30;;;;;;;7.07;4.13;;;28.20;66.50;;;;;;5054516;28;20082;-88
2023/06/12 12:32:57;;;;;;;4.07;3.78;;;28.80;67.50;;;;;;5053112;28;20024;-86
2023/06/12 12:35:24;;;;;;;5.13;3.72;;;28.20;65.00;;;;;;5054594;28;20025;-86
2023/06/12 12:37:51;;;;;;;12.40;4.88;;;28.20;66.10;;;;;;5054055;28;20424;-86
2023/06/12 12:40:17;;;;;;;4.70;4.20;;;28.30;65.60;;;;;;5053886;28;20032;-86
2023/06/12 12:42:48;;;;;;;7.68;4.38;;;28.30;66.70;;;;;;5054033;28;20025;-86
2023/06/12 12:45:15;;;;;;;5.28;4.43;;;28.30;66.50;;;;;;5054328;28;20032;-87
2023/06/12 12:47:47;;;;;;;7.53;4.25;;;28.20;66.80;;;;;;5053615;28;20074;-86